sensor_id;sensor_type;location;lat;lon;timestamp;P1;durP1;ratioP1;P2;durP2;ratioP2
61391;SDS011;47261;52.892;5.738;2023-11-21T00:00:17;32.13;;;6.00;;
61391;SDS011;47261;52.892;5.738;2023-11-21T00:02:43;24.42;;;6.18;;
61391;SDS011;47261;52.892;5.738;2023-11-21T00:05:13;23.50;;;5.53;;
61391;SDS011;47261;52.892;5.738;2023-11-21T00:07:39;31.02;;;6.65;;
61391;SDS011;47261;52.892;5.738;2023-11-21T00:10:07;26.98;;;6.80;;
61391;SDS011;47261;52.892;5.738;2023-11-21T00:12:33;29.52;;;7.40;;
61391;SDS011;47261;52.892;5.738;2023-11-21T00:15:00;25.98;;;7.57;;
61391;SDS011;47261;52.892;5.738;2023-11-21T00:17:26;23.97;;;7.00;;
61391;SDS011;47261;52.892;5.738;2023-11-21T00:19:52;32.42;;;7.15;;
61391;SDS011;47261;52.892;5.738;2023-11-21T00:22:18;23.70;;;6.53;;
61391;SDS011;47261;52.892;5.738;2023-11-21T00:24:44;35.95;;;6.85;;
61391;SDS011;47261;52.892;5.738;2023-11-21T00:27:10;24.45;;;6.53;;
61391;SDS011;47261;52.892;5.738;2023-11-21T00:29:36;32.80;;;6.72;;
61391;SDS011;47261;52.892;5.738;2023-11-21T00:32:03;32.73;;;6.30;;
61391;SDS011;47261;52.892;5.738;2023-11-21T00:34:30;21.55;;;5.32;;
61391;SDS011;47261;52.892;5.738;2023-11-21T00:36:56;25.90;;;5.85;;
61391;SDS011;47261;52.892;5.738;2023-11-21T00:39:22;30.13;;;5.60;;
61391;SDS011;47261;52.892;5.738;2023-11-21T00:41:47;28.23;;;5.72;;
61391;SDS011;47261;52.892;5.738;2023-11-21T00:44:13;29.93;;;5.17;;
61391;SDS011;47261;52.892;5.738;2023-11-21T00:46:39;27.45;;;5.80;;
61391;SDS011;47261;52.892;5.738;2023-11-21T00:49:04;28.70;;;4.97;;
61391;SDS011;47261;52.892;5.738;2023-11-21T00:51:30;22.40;;;5.22;;
61391;SDS011;47261;52.892;5.738;2023-11-21T00:53:56;44.97;;;6.17;;
61391;SDS011;47261;52.892;5.738;2023-11-21T00:56:22;27.95;;;5.03;;
61391;SDS011;47261;52.892;5.738;2023-11-21T00:58:47;21.60;;;5.03;;
61391;SDS011;47261;52.892;5.738;2023-11-21T01:01:17;35.40;;;5.60;;
61391;SDS011;47261;52.892;5.738;2023-11-21T01:03:47;44.28;;;5.50;;
61391;SDS011;47261;52.892;5.738;2023-11-21T01:06:12;30.23;;;5.70;;
61391;SDS011;47261;52.892;5.738;2023-11-21T01:08:38;30.65;;;5.40;;
61391;SDS011;47261;52.892;5.738;2023-11-21T01:11:04;31.03;;;5.70;;
61391;SDS011;47261;52.892;5.738;2023-11-21T01:13:32;27.33;;;4.85;;
61391;SDS011;47261;52.892;5.738;2023-11-21T01:15:58;32.80;;;5.55;;
61391;SDS011;47261;52.892;5.738;2023-11-21T01:18:23;20.60;;;4.17;;
61391;SDS011;47261;52.892;5.738;2023-11-21T01:20:50;24.85;;;4.95;;
61391;SDS011;47261;52.892;5.738;2023-11-21T01:23:18;29.95;;;4.72;;
61391;SDS011;47261;52.892;5.738;2023-11-21T01:25:44;25.17;;;4.20;;
61391;SDS011;47261;52.892;5.738;2023-11-21T01:28:10;31.25;;;5.05;;
61391;SDS011;47261;52.892;5.738;2023-11-21T01:30:35;32.03;;;4.32;;
61391;SDS011;47261;52.892;5.738;2023-11-21T01:33:01;31.67;;;5.50;;
61391;SDS011;47261;52.892;5.738;2023-11-21T01:35:27;35.87;;;5.80;;
61391;SDS011;47261;52.892;5.738;2023-11-21T01:37:52;28.03;;;5.07;;
61391;SDS011;47261;52.892;5.738;2023-11-21T01:40:18;30.23;;;5.07;;
61391;SDS011;47261;52.892;5.738;2023-11-21T01:42:44;26.03;;;3.80;;
61391;SDS011;47261;52.892;5.738;2023-11-21T01:45:11;23.83;;;4.18;;
61391;SDS011;47261;52.892;5.738;2023-11-21T01:47:37;27.05;;;4.38;;
61391;SDS011;47261;52.892;5.738;2023-11-21T01:50:06;26.33;;;4.25;;
61391;SDS011;47261;52.892;5.738;2023-11-21T01:52:33;23.63;;;4.37;;
61391;SDS011;47261;52.892;5.738;2023-11-21T01:55:00;23.40;;;4.07;;
61391;SDS011;47261;52.892;5.738;2023-11-21T01:57:27;23.25;;;4.50;;
61391;SDS011;47261;52.892;5.738;2023-11-21T01:59:53;20.43;;;4.80;;
61391;SDS011;47261;52.892;5.738;2023-11-21T02:02:19;16.10;;;3.35;;
61391;SDS011;47261;52.892;5.738;2023-11-21T02:04:45;19.13;;;3.88;;
61391;SDS011;47261;52.892;5.738;2023-11-21T02:07:11;16.00;;;3.43;;
61391;SDS011;47261;52.892;5.738;2023-11-21T02:09:36;19.98;;;4.10;;
61391;SDS011;47261;52.892;5.738;2023-11-21T02:12:07;18.92;;;3.33;;
61391;SDS011;47261;52.892;5.738;2023-11-21T02:14:35;21.27;;;3.90;;
61391;SDS011;47261;52.892;5.738;2023-11-21T02:17:01;17.85;;;3.33;;
61391;SDS011;47261;52.892;5.738;2023-11-21T02:19:28;27.65;;;3.78;;
61391;SDS011;47261;52.892;5.738;2023-11-21T02:21:56;19.08;;;3.45;;
61391;SDS011;47261;52.892;5.738;2023-11-21T02:24:25;12.80;;;3.22;;
61391;SDS011;47261;52.892;5.738;2023-11-21T02:26:52;19.70;;;4.10;;
61391;SDS011;47261;52.892;5.738;2023-11-21T02:29:18;15.48;;;3.22;;
61391;SDS011;47261;52.892;5.738;2023-11-21T02:31:47;12.60;;;2.58;;
61391;SDS011;47261;52.892;5.738;2023-11-21T02:34:17;12.03;;;2.77;;
61391;SDS011;47261;52.892;5.738;2023-11-21T02:36:46;10.35;;;2.67;;
61391;SDS011;47261;52.892;5.738;2023-11-21T02:39:14;17.67;;;3.33;;
61391;SDS011;47261;52.892;5.738;2023-11-21T02:41:41;19.33;;;3.42;;
61391;SDS011;47261;52.892;5.738;2023-11-21T02:44:08;14.15;;;2.50;;
61391;SDS011;47261;52.892;5.738;2023-11-21T02:46:34;16.00;;;2.50;;
61391;SDS011;47261;52.892;5.738;2023-11-21T02:49:01;10.85;;;2.35;;
61391;SDS011;47261;52.892;5.738;2023-11-21T02:51:31;16.92;;;2.60;;
61391;SDS011;47261;52.892;5.738;2023-11-21T02:53:57;13.57;;;2.80;;
61391;SDS011;47261;52.892;5.738;2023-11-21T02:56:27;13.75;;;2.78;;
61391;SDS011;47261;52.892;5.738;2023-11-21T02:58:55;12.80;;;2.73;;
61391;SDS011;47261;52.892;5.738;2023-11-21T03:01:21;12.38;;;2.40;;
61391;SDS011;47261;52.892;5.738;2023-11-21T03:03:48;16.55;;;3.17;;
61391;SDS011;47261;52.892;5.738;2023-11-21T03:06:16;18.55;;;3.17;;
61391;SDS011;47261;52.892;5.738;2023-11-21T03:08:45;11.75;;;3.20;;
61391;SDS011;47261;52.892;5.738;2023-11-21T03:11:11;12.60;;;3.17;;
61391;SDS011;47261;52.892;5.738;2023-11-21T03:13:40;11.13;;;2.90;;
61391;SDS011;47261;52.892;5.738;2023-11-21T03:16:09;13.82;;;4.03;;
61391;SDS011;47261;52.892;5.738;2023-11-21T03:18:36;15.70;;;3.88;;
61391;SDS011;47261;52.892;5.738;2023-11-21T03:21:02;20.88;;;5.00;;
61391;SDS011;47261;52.892;5.738;2023-11-21T03:23:28;20.13;;;5.33;;
61391;SDS011;47261;52.892;5.738;2023-11-21T03:25:54;28.40;;;6.00;;
61391;SDS011;47261;52.892;5.738;2023-11-21T03:28:19;33.47;;;6.20;;
61391;SDS011;47261;52.892;5.738;2023-11-21T03:30:45;22.98;;;5.60;;
61391;SDS011;47261;52.892;5.738;2023-11-21T03:33:10;32.17;;;5.43;;
61391;SDS011;47261;52.892;5.738;2023-11-21T03:35:37;31.02;;;5.47;;
61391;SDS011;47261;52.892;5.738;2023-11-21T03:38:03;24.87;;;5.67;;
61391;SDS011;47261;52.892;5.738;2023-11-21T03:40:29;25.55;;;5.72;;
61391;SDS011;47261;52.892;5.738;2023-11-21T03:42:56;29.70;;;5.38;;
61391;SDS011;47261;52.892;5.738;2023-11-21T03:45:22;23.90;;;5.63;;
61391;SDS011;47261;52.892;5.738;2023-11-21T03:47:48;22.33;;;5.23;;
61391;SDS011;47261;52.892;5.738;2023-11-21T03:50:13;26.15;;;5.38;;
61391;SDS011;47261;52.892;5.738;2023-11-21T03:52:39;30.10;;;5.17;;
61391;SDS011;47261;52.892;5.738;2023-11-21T03:55:05;43.53;;;6.67;;
61391;SDS011;47261;52.892;5.738;2023-11-21T03:57:30;36.33;;;6.33;;
61391;SDS011;47261;52.892;5.738;2023-11-21T03:59:56;33.93;;;5.83;;
61391;SDS011;47261;52.892;5.738;2023-11-21T04:02:22;17.48;;;4.05;;
61391;SDS011;47261;52.892;5.738;2023-11-21T04:04:47;24.67;;;4.43;;
61391;SDS011;47261;52.892;5.738;2023-11-21T04:07:13;17.60;;;3.92;;
61391;SDS011;47261;52.892;5.738;2023-11-21T04:09:39;24.37;;;3.60;;
61391;SDS011;47261;52.892;5.738;2023-11-21T04:12:06;21.33;;;3.15;;
61391;SDS011;47261;52.892;5.738;2023-11-21T04:14:34;9.98;;;2.25;;
61391;SDS011;47261;52.892;5.738;2023-11-21T04:16:59;9.23;;;1.80;;
61391;SDS011;47261;52.892;5.738;2023-11-21T04:19:25;10.73;;;1.95;;
61391;SDS011;47261;52.892;5.738;2023-11-21T04:21:50;12.67;;;1.57;;
61391;SDS011;47261;52.892;5.738;2023-11-21T04:24:16;16.20;;;2.78;;
61391;SDS011;47261;52.892;5.738;2023-11-21T04:26:43;10.97;;;2.13;;
61391;SDS011;47261;52.892;5.738;2023-11-21T04:29:09;12.30;;;2.22;;
61391;SDS011;47261;52.892;5.738;2023-11-21T04:31:34;12.67;;;2.50;;
61391;SDS011;47261;52.892;5.738;2023-11-21T04:34:00;12.07;;;2.55;;
61391;SDS011;47261;52.892;5.738;2023-11-21T04:36:26;9.97;;;2.47;;
61391;SDS011;47261;52.892;5.738;2023-11-21T04:38:51;11.38;;;3.20;;
61391;SDS011;47261;52.892;5.738;2023-11-21T04:41:17;9.77;;;2.40;;
61391;SDS011;47261;52.892;5.738;2023-11-21T04:43:43;13.60;;;3.70;;
61391;SDS011;47261;52.892;5.738;2023-11-21T04:46:08;12.33;;;3.23;;
61391;SDS011;47261;52.892;5.738;2023-11-21T04:48:34;19.70;;;3.63;;
61391;SDS011;47261;52.892;5.738;2023-11-21T04:51:00;17.77;;;4.13;;
61391;SDS011;47261;52.892;5.738;2023-11-21T04:53:25;16.67;;;3.35;;
61391;SDS011;47261;52.892;5.738;2023-11-21T04:55:51;15.73;;;4.07;;
61391;SDS011;47261;52.892;5.738;2023-11-21T04:58:17;18.10;;;5.03;;
61391;SDS011;47261;52.892;5.738;2023-11-21T05:00:42;17.20;;;3.72;;
61391;SDS011;47261;52.892;5.738;2023-11-21T05:03:09;14.30;;;3.85;;
61391;SDS011;47261;52.892;5.738;2023-11-21T05:05:34;16.37;;;4.50;;
61391;SDS011;47261;52.892;5.738;2023-11-21T05:08:00;16.15;;;4.38;;
61391;SDS011;47261;52.892;5.738;2023-11-21T05:10:26;13.38;;;3.80;;
61391;SDS011;47261;52.892;5.738;2023-11-21T05:12:52;13.87;;;4.40;;
61391;SDS011;47261;52.892;5.738;2023-11-21T05:15:18;12.23;;;3.80;;
61391;SDS011;47261;52.892;5.738;2023-11-21T05:17:44;13.75;;;3.75;;
61391;SDS011;47261;52.892;5.738;2023-11-21T05:20:11;14.25;;;3.85;;
61391;SDS011;47261;52.892;5.738;2023-11-21T05:22:38;12.98;;;3.83;;
61391;SDS011;47261;52.892;5.738;2023-11-21T05:25:04;13.53;;;3.17;;
61391;SDS011;47261;52.892;5.738;2023-11-21T05:27:32;13.35;;;4.22;;
61391;SDS011;47261;52.892;5.738;2023-11-21T05:29:58;17.27;;;4.35;;
61391;SDS011;47261;52.892;5.738;2023-11-21T05:32:24;21.37;;;4.70;;
61391;SDS011;47261;52.892;5.738;2023-11-21T05:34:50;15.23;;;4.68;;
61391;SDS011;47261;52.892;5.738;2023-11-21T05:37:16;13.80;;;3.88;;
61391;SDS011;47261;52.892;5.738;2023-11-21T05:39:42;12.85;;;3.17;;
61391;SDS011;47261;52.892;5.738;2023-11-21T05:42:08;14.40;;;3.37;;
61391;SDS011;47261;52.892;5.738;2023-11-21T05:44:35;15.30;;;3.67;;
61391;SDS011;47261;52.892;5.738;2023-11-21T05:47:02;12.30;;;3.63;;
61391;SDS011;47261;52.892;5.738;2023-11-21T05:49:28;9.85;;;2.85;;
61391;SDS011;47261;52.892;5.738;2023-11-21T05:51:55;10.23;;;3.13;;
61391;SDS011;47261;52.892;5.738;2023-11-21T05:54:21;12.55;;;3.75;;
61391;SDS011;47261;52.892;5.738;2023-11-21T05:56:47;17.52;;;4.53;;
61391;SDS011;47261;52.892;5.738;2023-11-21T05:59:12;15.45;;;4.45;;
61391;SDS011;47261;52.892;5.738;2023-11-21T06:01:38;16.43;;;4.80;;
61391;SDS011;47261;52.892;5.738;2023-11-21T06:04:04;13.23;;;3.65;;
61391;SDS011;47261;52.892;5.738;2023-11-21T06:06:30;16.23;;;5.07;;
61391;SDS011;47261;52.892;5.738;2023-11-21T06:08:56;17.27;;;5.03;;
61391;SDS011;47261;52.892;5.738;2023-11-21T06:11:22;22.50;;;5.60;;
61391;SDS011;47261;52.892;5.738;2023-11-21T06:13:48;15.52;;;5.13;;
61391;SDS011;47261;52.892;5.738;2023-11-21T06:16:14;14.38;;;4.35;;
61391;SDS011;47261;52.892;5.738;2023-11-21T06:18:42;17.03;;;4.47;;
61391;SDS011;47261;52.892;5.738;2023-11-21T06:21:12;14.90;;;4.53;;
61391;SDS011;47261;52.892;5.738;2023-11-21T06:23:38;15.13;;;4.25;;
61391;SDS011;47261;52.892;5.738;2023-11-21T06:26:04;20.40;;;5.78;;
61391;SDS011;47261;52.892;5.738;2023-11-21T06:28:32;19.77;;;4.80;;
61391;SDS011;47261;52.892;5.738;2023-11-21T06:30:58;20.95;;;4.85;;
61391;SDS011;47261;52.892;5.738;2023-11-21T06:33:24;16.93;;;4.70;;
61391;SDS011;47261;52.892;5.738;2023-11-21T06:35:52;22.38;;;5.72;;
61391;SDS011;47261;52.892;5.738;2023-11-21T06:38:18;20.52;;;5.20;;
61391;SDS011;47261;52.892;5.738;2023-11-21T06:40:44;22.10;;;5.87;;
61391;SDS011;47261;52.892;5.738;2023-11-21T06:43:10;19.33;;;5.20;;
61391;SDS011;47261;52.892;5.738;2023-11-21T06:45:36;21.17;;;5.82;;
61391;SDS011;47261;52.892;5.738;2023-11-21T06:48:02;16.10;;;5.23;;
61391;SDS011;47261;52.892;5.738;2023-11-21T06:50:27;19.63;;;4.45;;
61391;SDS011;47261;52.892;5.738;2023-11-21T06:52:53;17.50;;;4.67;;
61391;SDS011;47261;52.892;5.738;2023-11-21T06:55:19;17.10;;;5.30;;
61391;SDS011;47261;52.892;5.738;2023-11-21T06:57:44;24.67;;;5.30;;
61391;SDS011;47261;52.892;5.738;2023-11-21T07:00:12;17.25;;;5.47;;
61391;SDS011;47261;52.892;5.738;2023-11-21T07:02:38;17.25;;;5.60;;
61391;SDS011;47261;52.892;5.738;2023-11-21T07:05:04;19.93;;;6.07;;
61391;SDS011;47261;52.892;5.738;2023-11-21T07:07:30;25.30;;;5.97;;
61391;SDS011;47261;52.892;5.738;2023-11-21T07:09:56;17.20;;;5.23;;
61391;SDS011;47261;52.892;5.738;2023-11-21T07:12:22;17.77;;;5.82;;
61391;SDS011;47261;52.892;5.738;2023-11-21T07:14:48;20.08;;;5.72;;
61391;SDS011;47261;52.892;5.738;2023-11-21T07:17:14;15.17;;;5.23;;
61391;SDS011;47261;52.892;5.738;2023-11-21T07:19:41;17.30;;;4.93;;
61391;SDS011;47261;52.892;5.738;2023-11-21T07:22:07;17.73;;;5.27;;
61391;SDS011;47261;52.892;5.738;2023-11-21T07:24:33;18.30;;;6.60;;
61391;SDS011;47261;52.892;5.738;2023-11-21T07:26:59;18.08;;;6.07;;
61391;SDS011;47261;52.892;5.738;2023-11-21T07:29:25;19.73;;;6.22;;
61391;SDS011;47261;52.892;5.738;2023-11-21T07:31:52;26.37;;;6.83;;
61391;SDS011;47261;52.892;5.738;2023-11-21T07:34:19;21.77;;;6.95;;
61391;SDS011;47261;52.892;5.738;2023-11-21T07:36:46;30.98;;;9.07;;
61391;SDS011;47261;52.892;5.738;2023-11-21T07:39:11;35.17;;;8.10;;
61391;SDS011;47261;52.892;5.738;2023-11-21T07:41:37;26.07;;;6.37;;
61391;SDS011;47261;52.892;5.738;2023-11-21T07:44:09;26.55;;;7.57;;
61391;SDS011;47261;52.892;5.738;2023-11-21T07:46:35;22.30;;;6.85;;
61391;SDS011;47261;52.892;5.738;2023-11-21T07:49:01;28.20;;;8.57;;
61391;SDS011;47261;52.892;5.738;2023-11-21T07:51:27;32.77;;;9.87;;
61391;SDS011;47261;52.892;5.738;2023-11-21T07:53:52;31.33;;;8.65;;
61391;SDS011;47261;52.892;5.738;2023-11-21T07:56:18;30.97;;;8.90;;
61391;SDS011;47261;52.892;5.738;2023-11-21T07:58:43;27.00;;;8.27;;
61391;SDS011;47261;52.892;5.738;2023-11-21T08:01:09;29.90;;;9.43;;
61391;SDS011;47261;52.892;5.738;2023-11-21T08:03:35;26.63;;;8.13;;
61391;SDS011;47261;52.892;5.738;2023-11-21T08:06:01;28.33;;;8.17;;
61391;SDS011;47261;52.892;5.738;2023-11-21T08:08:28;26.95;;;7.75;;
61391;SDS011;47261;52.892;5.738;2023-11-21T08:10:54;28.77;;;7.93;;
61391;SDS011;47261;52.892;5.738;2023-11-21T08:13:26;27.70;;;8.80;;
61391;SDS011;47261;52.892;5.738;2023-11-21T08:15:55;25.20;;;7.17;;
61391;SDS011;47261;52.892;5.738;2023-11-21T08:18:23;28.40;;;8.82;;
61391;SDS011;47261;52.892;5.738;2023-11-21T08:20:49;34.78;;;8.57;;
61391;SDS011;47261;52.892;5.738;2023-11-21T08:23:15;22.97;;;7.47;;
61391;SDS011;47261;52.892;5.738;2023-11-21T08:25:44;23.05;;;6.18;;
61391;SDS011;47261;52.892;5.738;2023-11-21T08:28:10;26.08;;;8.38;;
61391;SDS011;47261;52.892;5.738;2023-11-21T08:30:36;27.65;;;7.45;;
61391;SDS011;47261;52.892;5.738;2023-11-21T08:33:01;33.67;;;7.70;;
61391;SDS011;47261;52.892;5.738;2023-11-21T08:35:28;24.40;;;7.07;;
61391;SDS011;47261;52.892;5.738;2023-11-21T08:37:54;26.35;;;6.38;;
61391;SDS011;47261;52.892;5.738;2023-11-21T08:40:20;20.63;;;5.90;;
61391;SDS011;47261;52.892;5.738;2023-11-21T08:42:49;25.00;;;6.03;;
61391;SDS011;47261;52.892;5.738;2023-11-21T08:45:17;30.60;;;7.72;;
61391;SDS011;47261;52.892;5.738;2023-11-21T08:47:44;41.75;;;9.80;;
61391;SDS011;47261;52.892;5.738;2023-11-21T08:50:10;40.57;;;10.03;;
61391;SDS011;47261;52.892;5.738;2023-11-21T08:52:37;42.63;;;10.07;;
61391;SDS011;47261;52.892;5.738;2023-11-21T08:55:04;26.48;;;7.68;;
61391;SDS011;47261;52.892;5.738;2023-11-21T08:57:35;22.50;;;7.00;;
61391;SDS011;47261;52.892;5.738;2023-11-21T09:00:05;34.92;;;10.23;;
61391;SDS011;47261;52.892;5.738;2023-11-21T09:02:35;28.70;;;8.90;;
61391;SDS011;47261;52.892;5.738;2023-11-21T09:05:02;27.20;;;8.80;;
61391;SDS011;47261;52.892;5.738;2023-11-21T09:07:31;21.50;;;6.82;;
61391;SDS011;47261;52.892;5.738;2023-11-21T09:09:57;31.95;;;10.32;;
61391;SDS011;47261;52.892;5.738;2023-11-21T09:12:23;26.00;;;7.87;;
61391;SDS011;47261;52.892;5.738;2023-11-21T09:14:50;20.65;;;7.55;;
61391;SDS011;47261;52.892;5.738;2023-11-21T09:17:16;31.38;;;10.38;;
61391;SDS011;47261;52.892;5.738;2023-11-21T09:19:42;34.63;;;11.33;;
61391;SDS011;47261;52.892;5.738;2023-11-21T09:22:15;26.17;;;8.35;;
61391;SDS011;47261;52.892;5.738;2023-11-21T09:24:41;36.28;;;10.85;;
61391;SDS011;47261;52.892;5.738;2023-11-21T09:27:07;34.53;;;11.45;;
61391;SDS011;47261;52.892;5.738;2023-11-21T09:29:34;27.30;;;8.98;;
61391;SDS011;47261;52.892;5.738;2023-11-21T09:32:00;35.23;;;10.63;;
61391;SDS011;47261;52.892;5.738;2023-11-21T09:34:26;29.45;;;10.73;;
61391;SDS011;47261;52.892;5.738;2023-11-21T09:36:52;38.95;;;11.95;;
61391;SDS011;47261;52.892;5.738;2023-11-21T09:39:18;32.03;;;11.10;;
61391;SDS011;47261;52.892;5.738;2023-11-21T09:41:46;28.17;;;10.00;;
61391;SDS011;47261;52.892;5.738;2023-11-21T09:44:20;36.28;;;11.73;;
61391;SDS011;47261;52.892;5.738;2023-11-21T09:46:55;33.13;;;10.07;;
61391;SDS011;47261;52.892;5.738;2023-11-21T09:49:24;34.83;;;11.98;;
61391;SDS011;47261;52.892;5.738;2023-11-21T09:51:53;30.83;;;10.73;;
61391;SDS011;47261;52.892;5.738;2023-11-21T09:54:21;29.85;;;9.82;;
61391;SDS011;47261;52.892;5.738;2023-11-21T09:56:47;24.07;;;8.60;;
61391;SDS011;47261;52.892;5.738;2023-11-21T09:59:13;31.57;;;10.77;;
61391;SDS011;47261;52.892;5.738;2023-11-21T10:01:40;39.08;;;11.68;;
61391;SDS011;47261;52.892;5.738;2023-11-21T10:04:07;33.05;;;11.48;;
61391;SDS011;47261;52.892;5.738;2023-11-21T10:06:38;29.75;;;10.55;;
61391;SDS011;47261;52.892;5.738;2023-11-21T10:09:06;31.33;;;11.40;;
61391;SDS011;47261;52.892;5.738;2023-11-21T10:11:37;30.43;;;10.67;;
61391;SDS011;47261;52.892;5.738;2023-11-21T10:14:07;28.70;;;10.82;;
61391;SDS011;47261;52.892;5.738;2023-11-21T10:16:37;22.90;;;8.18;;
61391;SDS011;47261;52.892;5.738;2023-11-21T10:19:04;27.30;;;9.05;;
61391;SDS011;47261;52.892;5.738;2023-11-21T10:21:34;26.42;;;9.55;;
61391;SDS011;47261;52.892;5.738;2023-11-21T10:24:00;23.10;;;7.90;;
61391;SDS011;47261;52.892;5.738;2023-11-21T10:26:28;22.42;;;7.63;;
61391;SDS011;47261;52.892;5.738;2023-11-21T10:31:23;18.13;;;6.40;;
61391;SDS011;47261;52.892;5.738;2023-11-21T10:33:52;26.77;;;10.10;;
61391;SDS011;47261;52.892;5.738;2023-11-21T10:36:28;21.20;;;7.75;;
61391;SDS011;47261;52.892;5.738;2023-11-21T10:38:54;28.08;;;9.50;;
61391;SDS011;47261;52.892;5.738;2023-11-21T10:41:20;28.08;;;9.82;;
61391;SDS011;47261;52.892;5.738;2023-11-21T10:43:46;25.30;;;9.30;;
61391;SDS011;47261;52.892;5.738;2023-11-21T10:46:13;26.58;;;9.40;;
61391;SDS011;47261;52.892;5.738;2023-11-21T10:48:41;19.33;;;8.75;;
61391;SDS011;47261;52.892;5.738;2023-11-21T10:51:07;23.17;;;9.00;;
61391;SDS011;47261;52.892;5.738;2023-11-21T10:53:34;24.83;;;9.38;;
61391;SDS011;47261;52.892;5.738;2023-11-21T10:56:08;22.40;;;9.10;;
61391;SDS011;47261;52.892;5.738;2023-11-21T10:58:36;22.15;;;8.85;;
61391;SDS011;47261;52.892;5.738;2023-11-21T11:01:03;18.92;;;8.05;;
61391;SDS011;47261;52.892;5.738;2023-11-21T11:03:32;17.90;;;8.07;;
61391;SDS011;47261;52.892;5.738;2023-11-21T11:06:01;12.98;;;5.68;;
61391;SDS011;47261;52.892;5.738;2023-11-21T11:08:28;14.80;;;6.20;;
61391;SDS011;47261;52.892;5.738;2023-11-21T11:10:54;15.65;;;6.65;;
61391;SDS011;47261;52.892;5.738;2023-11-21T11:13:20;19.20;;;7.60;;
61391;SDS011;47261;52.892;5.738;2023-11-21T11:15:49;17.67;;;8.05;;
61391;SDS011;47261;52.892;5.738;2023-11-21T11:18:16;18.80;;;7.65;;
61391;SDS011;47261;52.892;5.738;2023-11-21T11:20:42;18.00;;;7.80;;
61391;SDS011;47261;52.892;5.738;2023-11-21T11:23:13;15.98;;;7.00;;
61391;SDS011;47261;52.892;5.738;2023-11-21T11:26:07;15.45;;;7.53;;
61391;SDS011;47261;52.892;5.738;2023-11-21T11:29:04;16.13;;;7.40;;
61391;SDS011;47261;52.892;5.738;2023-11-21T11:32:00;12.97;;;6.10;;
61391;SDS011;47261;52.892;5.738;2023-11-21T11:34:50;12.82;;;5.90;;
61391;SDS011;47261;52.892;5.738;2023-11-21T11:37:25;12.82;;;6.22;;
61391;SDS011;47261;52.892;5.738;2023-11-21T11:39:51;13.25;;;6.07;;
61391;SDS011;47261;52.892;5.738;2023-11-21T11:42:17;15.40;;;6.57;;
61391;SDS011;47261;52.892;5.738;2023-11-21T11:47:26;15.05;;;6.65;;
61391;SDS011;47261;52.892;5.738;2023-11-21T11:52:41;17.67;;;8.10;;
61391;SDS011;47261;52.892;5.738;2023-11-21T11:55:12;16.33;;;7.90;;
61391;SDS011;47261;52.892;5.738;2023-11-21T11:57:42;19.85;;;9.07;;
61391;SDS011;47261;52.892;5.738;2023-11-21T12:02:36;20.83;;;9.82;;
61391;SDS011;47261;52.892;5.738;2023-11-21T12:05:07;19.52;;;9.25;;
61391;SDS011;47261;52.892;5.738;2023-11-21T12:10:17;21.45;;;9.05;;
61391;SDS011;47261;52.892;5.738;2023-11-21T12:12:48;19.95;;;9.52;;
61391;SDS011;47261;52.892;5.738;2023-11-21T12:15:15;20.55;;;9.98;;
61391;SDS011;47261;52.892;5.738;2023-11-21T12:17:41;18.95;;;8.55;;
61391;SDS011;47261;52.892;5.738;2023-11-21T12:20:08;20.83;;;8.67;;
61391;SDS011;47261;52.892;5.738;2023-11-21T12:22:48;14.75;;;7.10;;
61391;SDS011;47261;52.892;5.738;2023-11-21T12:25:16;14.23;;;5.75;;
61391;SDS011;47261;52.892;5.738;2023-11-21T12:27:46;18.17;;;7.90;;
61391;SDS011;47261;52.892;5.738;2023-11-21T12:30:19;16.48;;;7.65;;
61391;SDS011;47261;52.892;5.738;2023-11-21T12:32:49;15.87;;;8.23;;
61391;SDS011;47261;52.892;5.738;2023-11-21T12:35:16;17.58;;;7.95;;
61391;SDS011;47261;52.892;5.738;2023-11-21T12:37:49;19.05;;;8.57;;
61391;SDS011;47261;52.892;5.738;2023-11-21T12:40:16;13.80;;;6.80;;
61391;SDS011;47261;52.892;5.738;2023-11-21T12:42:42;14.82;;;7.72;;
61391;SDS011;47261;52.892;5.738;2023-11-21T12:47:42;14.43;;;7.60;;
61391;SDS011;47261;52.892;5.738;2023-11-21T12:50:09;12.38;;;6.63;;
61391;SDS011;47261;52.892;5.738;2023-11-21T12:52:45;14.63;;;7.10;;
61391;SDS011;47261;52.892;5.738;2023-11-21T12:55:18;11.85;;;6.22;;
61391;SDS011;47261;52.892;5.738;2023-11-21T12:57:53;16.77;;;6.70;;
61391;SDS011;47261;52.892;5.738;2023-11-21T13:00:26;12.13;;;6.30;;
61391;SDS011;47261;52.892;5.738;2023-11-21T13:02:54;14.45;;;5.90;;
61391;SDS011;47261;52.892;5.738;2023-11-21T13:05:32;11.77;;;6.20;;
61391;SDS011;47261;52.892;5.738;2023-11-21T13:08:05;12.88;;;5.32;;
61391;SDS011;47261;52.892;5.738;2023-11-21T13:10:36;13.80;;;5.63;;
61391;SDS011;47261;52.892;5.738;2023-11-21T13:13:04;9.77;;;4.93;;
61391;SDS011;47261;52.892;5.738;2023-11-21T13:15:34;11.43;;;4.50;;
61391;SDS011;47261;52.892;5.738;2023-11-21T13:18:03;10.65;;;4.90;;
61391;SDS011;47261;52.892;5.738;2023-11-21T13:20:29;9.90;;;4.47;;
61391;SDS011;47261;52.892;5.738;2023-11-21T13:22:58;12.70;;;5.90;;
61391;SDS011;47261;52.892;5.738;2023-11-21T13:25:24;11.60;;;4.77;;
61391;SDS011;47261;52.892;5.738;2023-11-21T13:27:59;10.50;;;4.20;;
61391;SDS011;47261;52.892;5.738;2023-11-21T13:30:28;10.38;;;4.32;;
61391;SDS011;47261;52.892;5.738;2023-11-21T13:33:00;9.88;;;3.78;;
61391;SDS011;47261;52.892;5.738;2023-11-21T13:35:32;8.02;;;3.60;;
61391;SDS011;47261;52.892;5.738;2023-11-21T13:38:10;8.50;;;3.07;;
61391;SDS011;47261;52.892;5.738;2023-11-21T13:40:37;8.18;;;3.03;;
61391;SDS011;47261;52.892;5.738;2023-11-21T13:43:12;8.20;;;3.47;;
61391;SDS011;47261;52.892;5.738;2023-11-21T13:45:42;8.50;;;3.20;;
61391;SDS011;47261;52.892;5.738;2023-11-21T13:48:09;8.23;;;3.22;;
61391;SDS011;47261;52.892;5.738;2023-11-21T13:50:42;9.03;;;3.77;;
61391;SDS011;47261;52.892;5.738;2023-11-21T13:53:14;8.93;;;3.67;;
61391;SDS011;47261;52.892;5.738;2023-11-21T13:55:47;8.07;;;3.20;;
61391;SDS011;47261;52.892;5.738;2023-11-21T13:58:14;10.32;;;4.00;;
61391;SDS011;47261;52.892;5.738;2023-11-21T14:00:45;9.05;;;4.13;;
61391;SDS011;47261;52.892;5.738;2023-11-21T14:03:12;9.93;;;4.20;;
61391;SDS011;47261;52.892;5.738;2023-11-21T14:05:46;9.98;;;3.95;;
61391;SDS011;47261;52.892;5.738;2023-11-21T14:08:16;12.02;;;5.65;;
61391;SDS011;47261;52.892;5.738;2023-11-21T14:10:45;10.98;;;5.22;;
61391;SDS011;47261;52.892;5.738;2023-11-21T14:13:16;11.85;;;5.47;;
61391;SDS011;47261;52.892;5.738;2023-11-21T14:15:42;12.63;;;4.90;;
61391;SDS011;47261;52.892;5.738;2023-11-21T14:18:15;12.18;;;5.13;;
61391;SDS011;47261;52.892;5.738;2023-11-21T14:20:42;11.73;;;4.82;;
61391;SDS011;47261;52.892;5.738;2023-11-21T14:23:09;11.55;;;5.18;;
61391;SDS011;47261;52.892;5.738;2023-11-21T14:25:36;13.00;;;4.65;;
61391;SDS011;47261;52.892;5.738;2023-11-21T14:28:04;12.90;;;5.23;;
61391;SDS011;47261;52.892;5.738;2023-11-21T14:30:31;12.50;;;5.03;;
61391;SDS011;47261;52.892;5.738;2023-11-21T14:33:00;13.10;;;5.50;;
61391;SDS011;47261;52.892;5.738;2023-11-21T14:35:26;11.20;;;5.70;;
61391;SDS011;47261;52.892;5.738;2023-11-21T14:37:52;11.87;;;5.60;;
61391;SDS011;47261;52.892;5.738;2023-11-21T14:40:18;12.02;;;5.57;;
61391;SDS011;47261;52.892;5.738;2023-11-21T14:42:49;12.13;;;5.70;;
61391;SDS011;47261;52.892;5.738;2023-11-21T14:45:18;13.95;;;5.93;;
61391;SDS011;47261;52.892;5.738;2023-11-21T14:47:45;12.90;;;5.17;;
61391;SDS011;47261;52.892;5.738;2023-11-21T14:50:21;11.70;;;5.05;;